createdAt,value
2019-01-24T00:00:00.244Z,61.66
2019-01-24T00:01:00.194Z,61.66
2019-01-24T00:02:00.180Z,61.55
2019-01-24T00:03:00.181Z,61.55
2019-01-24T00:04:00.162Z,62.08
2019-01-24T00:05:00.187Z,62.40
2019-01-24T00:06:00.140Z,62.71
2019-01-24T00:07:00.139Z,61.66
2019-01-24T00:08:00.128Z,61.24
2019-01-24T00:09:00.110Z,61.32
2019-01-24T00:10:00.208Z,61.66
2019-01-24T00:11:00.112Z,61.32
2019-01-24T00:12:00.070Z,61.63
2019-01-24T00:13:00.057Z,61.24
2019-01-24T00:14:00.063Z,61.00
2019-01-24T00:15:00.047Z,61.13
2019-01-24T00:16:00.058Z,61.94
2019-01-24T00:17:00.038Z,61.87
2019-01-24T00:18:00.009Z,60.71
2019-01-24T00:18:59.992Z,60.58
2019-01-24T00:19:59.981Z,60.48
2019-01-24T00:21:00.014Z,61.21
2019-01-24T00:21:59.973Z,60.50
2019-01-24T00:22:59.956Z,60.69
2019-01-24T00:23:59.946Z,60.37
2019-01-24T00:24:59.948Z,60.79
2019-01-24T00:25:59.939Z,60.48
2019-01-24T00:26:59.955Z,60.93
2019-01-24T00:27:59.986Z,61.03
2019-01-24T00:28:59.890Z,61.13
2019-01-24T00:29:59.884Z,61.35
2019-01-24T00:30:59.863Z,61.55
2019-01-24T00:31:59.884Z,61.45
2019-01-24T00:32:59.845Z,61.45
2019-01-24T00:33:59.842Z,61.24
2019-01-24T00:34:59.829Z,61.47
2019-01-24T00:35:59.866Z,61.45
2019-01-24T00:36:59.795Z,61.55
2019-01-24T00:37:59.816Z,61.87
2019-01-24T00:38:59.778Z,61.24
2019-01-24T00:39:59.812Z,61.03
2019-01-24T00:40:59.751Z,61.66
2019-01-24T00:41:59.746Z,61.11
2019-01-24T00:42:59.760Z,60.82
2019-01-24T00:43:59.725Z,61.24
2019-01-24T00:44:59.714Z,61.66
2019-01-24T00:45:59.729Z,60.37
2019-01-24T00:46:59.683Z,60.37
2019-01-24T00:47:59.726Z,59.95
2019-01-24T00:48:59.673Z,60.58
2019-01-24T00:49:59.661Z,60.48
2019-01-24T00:50:59.652Z,60.27
2019-01-24T00:51:59.629Z,58.80
2019-01-24T00:52:59.619Z,59.11
2019-01-24T00:53:59.668Z,60.58
2019-01-24T00:54:59.629Z,60.40
2019-01-24T00:55:59.591Z,60.48
2019-01-24T00:56:59.658Z,60.58
2019-01-24T00:57:59.590Z,60.16
2019-01-24T00:58:59.564Z,60.48
2019-01-24T00:59:59.549Z,59.84
2019-01-24T01:00:59.550Z,60.40
2019-01-24T01:01:59.523Z,60.50
2019-01-24T01:02:59.538Z,60.27
2019-01-24T01:03:59.504Z,59.95
2019-01-24T01:04:59.490Z,60.61
2019-01-24T01:05:59.477Z,60.08
2019-01-24T01:06:59.488Z,59.42
2019-01-24T01:07:59.493Z,59.84
2019-01-24T01:08:59.460Z,60.48
2019-01-24T01:09:59.442Z,60.40
2019-01-24T01:10:59.422Z,60.71
2019-01-24T01:11:59.412Z,60.82
2019-01-24T01:12:59.454Z,60.40
2019-01-24T01:13:59.415Z,59.64
2019-01-24T01:14:59.418Z,59.95
2019-01-24T01:15:59.398Z,60.48
2019-01-24T01:16:59.370Z,60.06
2019-01-24T01:17:59.362Z,59.84
2019-01-24T01:18:59.365Z,60.16
2019-01-24T01:19:59.332Z,59.19
2019-01-24T01:20:59.335Z,58.67
2019-01-24T01:21:59.308Z,59.32
2019-01-24T01:22:59.298Z,59.82
2019-01-24T01:23:59.325Z,60.45
2019-01-24T01:24:59.299Z,59.84
2019-01-24T01:25:59.296Z,60.45
2019-01-24T01:26:59.250Z,60.45
2019-01-24T01:27:59.247Z,59.92
2019-01-24T01:28:59.232Z,59.72
2019-01-24T01:29:59.226Z,58.95
2019-01-24T01:30:59.227Z,58.95
2019-01-24T01:31:59.253Z,59.58
2019-01-24T01:32:59.189Z,59.61
2019-01-24T01:33:59.174Z,59.53
2019-01-24T01:34:59.168Z,60.27
2019-01-24T01:35:59.175Z,60.27
2019-01-24T01:36:59.148Z,60.89
2019-01-24T01:37:59.171Z,60.16
2019-01-24T01:38:59.128Z,60.37
2019-01-24T01:39:59.133Z,60.48
2019-01-24T01:40:59.108Z,59.82
2019-01-24T01:41:59.117Z,60.37
2019-01-24T01:42:59.109Z,60.27
2019-01-24T01:43:59.065Z,60.16
2019-01-24T01:44:59.054Z,60.37
2019-01-24T01:45:59.055Z,60.37
2019-01-24T01:46:59.034Z,60.06
2019-01-24T01:47:59.051Z,60.35
2019-01-24T01:48:59.043Z,60.45
2019-01-24T01:49:59.014Z,60.13
2019-01-24T01:50:58.992Z,60.13
2019-01-24T01:51:58.983Z,59.40
2019-01-24T01:52:59.084Z,59.82
2019-01-24T01:53:58.963Z,60.35
2019-01-24T01:54:58.951Z,60.55
2019-01-24T01:55:58.938Z,59.72
2019-01-24T01:56:58.937Z,59.38
2019-01-24T01:57:58.956Z,59.82
2019-01-24T01:58:58.908Z,59.38
2019-01-24T01:59:58.896Z,59.38
2019-01-24T02:00:58.887Z,59.06
2019-01-24T02:01:58.874Z,59.58
2019-01-24T02:02:58.871Z,59.90
2019-01-24T02:03:58.882Z,59.69
2019-01-24T02:04:58.845Z,59.14
2019-01-24T02:05:58.831Z,58.72
2019-01-24T02:06:58.815Z,58.95
2019-01-24T02:07:58.855Z,58.85
2019-01-24T02:08:58.858Z,59.79
2019-01-24T02:09:58.785Z,59.79
2019-01-24T02:10:58.779Z,60.24
2019-01-24T02:11:58.765Z,60.13
2019-01-24T02:12:58.757Z,60.45
2019-01-24T02:13:58.752Z,60.48
2019-01-24T02:14:58.777Z,60.58
2019-01-24T02:15:58.751Z,60.45
2019-01-24T02:16:58.716Z,60.55
2019-01-24T02:17:58.707Z,60.55
2019-01-24T02:18:58.744Z,60.55
2019-01-24T02:19:58.692Z,60.55
2019-01-24T02:20:58.692Z,60.35
2019-01-24T02:21:58.669Z,60.11
2019-01-24T02:22:58.653Z,60.42
2019-01-24T02:23:58.640Z,60.00
2019-01-24T02:24:58.668Z,60.35
2019-01-24T02:25:58.632Z,60.31
2019-01-24T02:26:58.603Z,60.45
2019-01-24T02:27:58.623Z,60.21
2019-01-24T02:28:58.598Z,59.79
2019-01-24T02:29:58.614Z,60.35
2019-01-24T02:30:58.598Z,60.11
2019-01-24T02:31:58.587Z,60.11
2019-01-24T02:32:58.546Z,60.13
2019-01-24T02:33:58.539Z,60.42
2019-01-24T02:34:58.552Z,60.24
2019-01-24T02:35:58.531Z,60.21
2019-01-24T02:36:58.498Z,60.53
2019-01-24T02:37:58.518Z,59.79
2019-01-24T02:38:58.487Z,59.90
2019-01-24T02:39:58.470Z,60.21
2019-01-24T02:40:58.482Z,60.11
2019-01-24T02:41:58.453Z,60.21
2019-01-24T02:42:58.447Z,60.42
2019-01-24T02:43:58.460Z,59.90
2019-01-24T02:44:58.426Z,60.31
2019-01-24T02:45:58.403Z,60.42
2019-01-24T02:46:58.410Z,60.45
2019-01-24T02:47:58.388Z,60.45
2019-01-24T02:48:58.422Z,60.87
2019-01-24T02:49:58.366Z,60.77
2019-01-24T02:50:58.373Z,60.77
2019-01-24T02:51:58.338Z,60.87
2019-01-24T02:52:58.337Z,60.24
2019-01-24T02:53:58.390Z,60.13
2019-01-24T02:54:58.342Z,60.35
2019-01-24T02:55:58.294Z,60.53
2019-01-24T02:56:58.291Z,60.45
2019-01-24T02:57:58.285Z,60.77
2019-01-24T02:58:58.267Z,60.97
2019-01-24T02:59:58.319Z,61.40
2019-01-24T03:00:58.269Z,61.40
2019-01-24T03:01:58.246Z,61.40
2019-01-24T03:02:58.243Z,61.08
2019-01-24T03:03:58.225Z,60.31
2019-01-24T03:04:58.212Z,60.63
2019-01-24T03:05:58.238Z,60.53
2019-01-24T03:06:58.184Z,60.31
2019-01-24T03:07:58.176Z,60.31
2019-01-24T03:08:58.179Z,60.29
2019-01-24T03:09:58.154Z,60.53
2019-01-24T03:10:58.277Z,60.42
2019-01-24T03:11:58.185Z,60.35
2019-01-24T03:12:58.120Z,60.45
2019-01-24T03:13:58.106Z,60.97
2019-01-24T03:14:58.122Z,60.35
2019-01-24T03:15:58.083Z,60.66
2019-01-24T03:16:58.099Z,60.55
2019-01-24T03:17:58.094Z,60.55
2019-01-24T03:18:58.099Z,60.66
2019-01-24T03:19:58.041Z,60.42
2019-01-24T03:20:58.034Z,60.31
2019-01-24T03:21:58.021Z,60.63
2019-01-24T03:22:58.094Z,60.21
2019-01-24T03:23:57.998Z,60.11
2019-01-24T03:24:58.023Z,60.63
2019-01-24T03:25:57.975Z,60.53
2019-01-24T03:26:57.996Z,60.21
2019-01-24T03:27:57.999Z,60.42
2019-01-24T03:28:57.955Z,61.08
2019-01-24T03:29:57.930Z,60.94
2019-01-24T03:30:57.973Z,60.82
2019-01-24T03:31:57.914Z,60.19
2019-01-24T03:32:57.918Z,60.71
2019-01-24T03:33:57.918Z,60.50
2019-01-24T03:35:03.932Z,60.21
2019-01-24T03:35:58.871Z,60.42
2019-01-24T03:36:57.863Z,60.19
2019-01-24T03:37:57.844Z,60.42
2019-01-24T03:38:57.865Z,60.53
2019-01-24T03:39:57.832Z,60.29
2019-01-24T03:40:57.815Z,60.11
2019-01-24T03:41:57.809Z,60.11
2019-01-24T03:42:57.825Z,60.42
2019-01-24T03:43:57.793Z,60.31
2019-01-24T03:44:57.808Z,60.63
2019-01-24T03:45:57.763Z,60.53
2019-01-24T03:46:57.771Z,59.90
2019-01-24T03:47:57.766Z,60.21
2019-01-24T03:48:57.783Z,60.50
2019-01-24T03:49:57.775Z,59.90
2019-01-24T03:50:57.724Z,60.42
2019-01-24T03:51:57.698Z,60.94
2019-01-24T03:52:57.692Z,60.45
2019-01-24T03:53:57.704Z,60.97
2019-01-24T03:54:57.674Z,60.87
2019-01-24T03:55:57.722Z,60.42
2019-01-24T03:56:57.647Z,60.94
2019-01-24T03:57:57.635Z,60.74
2019-01-24T03:58:57.627Z,60.94
2019-01-24T03:59:57.658Z,60.97
2019-01-24T04:00:57.604Z,61.16
2019-01-24T04:01:57.605Z,61.16
2019-01-24T04:02:57.582Z,60.31
2019-01-24T04:03:57.571Z,60.63
2019-01-24T04:04:57.613Z,60.31
2019-01-24T04:05:57.857Z,60.50
2019-01-24T04:06:57.543Z,60.42
2019-01-24T04:07:57.529Z,61.05
2019-01-24T04:08:57.520Z,60.74
2019-01-24T04:09:57.514Z,60.21
2019-01-24T04:10:57.548Z,60.63
2019-01-24T04:11:57.516Z,60.42
2019-01-24T04:12:57.474Z,61.05
2019-01-24T04:13:57.477Z,60.97
2019-01-24T04:14:57.455Z,60.87
2019-01-24T04:15:57.440Z,61.58
2019-01-24T04:16:57.484Z,61.50
2019-01-24T04:17:57.446Z,61.40
2019-01-24T04:18:57.419Z,61.71
2019-01-24T04:19:57.411Z,61.18
2019-01-24T04:20:57.388Z,60.97
2019-01-24T04:21:57.375Z,60.55
2019-01-24T04:22:57.446Z,60.77
2019-01-24T04:23:57.397Z,61.60
2019-01-24T04:24:57.373Z,61.18
2019-01-24T04:25:57.341Z,61.32
2019-01-24T04:26:57.368Z,60.87
2019-01-24T04:27:57.334Z,61.53
2019-01-24T04:28:57.303Z,61.74
2019-01-24T04:29:57.322Z,61.53
2019-01-24T04:30:57.287Z,61.71
2019-01-24T04:31:57.276Z,61.18
2019-01-24T04:32:57.283Z,61.60
2019-01-24T04:33:57.266Z,60.31
2019-01-24T04:34:57.238Z,60.24
2019-01-24T04:35:57.230Z,60.66
2019-01-24T04:36:57.214Z,61.29
2019-01-24T04:37:57.243Z,61.50
2019-01-24T04:38:57.221Z,61.50
2019-01-24T04:39:57.189Z,60.55
2019-01-24T04:40:57.172Z,60.53
2019-01-24T04:41:57.164Z,60.31
2019-01-24T04:42:57.173Z,60.21
2019-01-24T04:43:57.173Z,59.79
2019-01-24T04:44:57.172Z,60.21
2019-01-24T04:45:57.126Z,60.42
2019-01-24T04:46:57.121Z,60.21
2019-01-24T04:47:57.098Z,59.72
2019-01-24T04:48:57.090Z,60.55
2019-01-24T04:49:57.122Z,60.45
2019-01-24T04:50:57.115Z,60.13
2019-01-24T04:51:57.061Z,59.61
2019-01-24T04:52:57.047Z,60.24
2019-01-24T04:53:57.034Z,60.58
2019-01-24T04:54:57.034Z,60.06
2019-01-24T04:55:57.010Z,60.77
2019-01-24T04:56:57.024Z,60.45
2019-01-24T04:57:57.000Z,60.97
2019-01-24T04:58:56.981Z,60.87
2019-01-24T04:59:56.997Z,60.77
2019-01-24T05:00:56.970Z,60.35
2019-01-24T05:01:56.945Z,60.45
2019-01-24T05:02:56.994Z,61.29
2019-01-24T05:03:56.926Z,60.97
2019-01-24T05:04:56.966Z,60.27
2019-01-24T05:05:56.902Z,60.35
2019-01-24T05:06:56.903Z,60.16
2019-01-24T05:07:56.882Z,61.00
2019-01-24T05:08:56.869Z,61.13
2019-01-24T05:09:56.866Z,61.77
2019-01-24T05:10:56.882Z,61.53
2019-01-24T05:11:56.842Z,60.79
2019-01-24T05:12:56.827Z,60.48
2019-01-24T05:13:56.816Z,60.16
2019-01-24T05:14:56.812Z,60.40
2019-01-24T05:15:56.800Z,60.82
2019-01-24T05:16:56.822Z,60.93
2019-01-24T05:17:56.791Z,60.50
2019-01-24T05:18:56.759Z,60.50
2019-01-24T05:19:56.749Z,60.69
2019-01-24T05:20:56.732Z,60.69
2019-01-24T05:21:56.745Z,60.27
2019-01-24T05:22:56.749Z,60.79
2019-01-24T05:23:56.712Z,60.58
2019-01-24T05:24:56.693Z,60.37
2019-01-24T05:25:56.683Z,60.48
2019-01-24T05:26:56.676Z,60.16
2019-01-24T05:27:56.703Z,61.00
2019-01-24T05:28:56.652Z,61.32
2019-01-24T05:29:56.684Z,61.00
2019-01-24T05:30:56.625Z,60.66
2019-01-24T05:31:56.616Z,60.77
2019-01-24T05:32:56.607Z,60.45
2019-01-24T05:33:56.635Z,60.87
2019-01-24T05:34:56.589Z,60.35
2019-01-24T05:35:56.583Z,60.35
2019-01-24T05:36:56.579Z,59.92
2019-01-24T05:37:56.545Z,60.35
2019-01-24T05:38:56.579Z,60.55
2019-01-24T05:39:56.530Z,60.53
2019-01-24T05:40:56.526Z,60.42
2019-01-24T05:41:56.511Z,60.00
2019-01-24T05:42:56.514Z,59.79
2019-01-24T05:43:56.524Z,59.92
2019-01-24T05:44:56.501Z,60.45
2019-01-24T05:45:56.463Z,60.35
2019-01-24T05:46:56.465Z,60.45
2019-01-24T05:47:56.440Z,60.37
2019-01-24T05:48:56.464Z,60.89
2019-01-24T05:49:56.419Z,61.00
2019-01-24T05:50:56.405Z,60.89
2019-01-24T05:51:56.399Z,60.55
2019-01-24T05:52:56.395Z,60.48
2019-01-24T05:53:56.434Z,60.06
2019-01-24T05:54:56.367Z,60.69
2019-01-24T05:55:56.356Z,60.61
2019-01-24T05:56:56.353Z,60.50
2019-01-24T05:57:56.336Z,60.93
2019-01-24T05:58:56.330Z,61.35
2019-01-24T05:59:56.361Z,61.03
2019-01-24T06:00:56.315Z,60.71
2019-01-24T06:01:56.296Z,60.58
2019-01-24T06:02:56.282Z,60.58
2019-01-24T06:03:56.274Z,60.48
2019-01-24T06:04:56.255Z,60.27
2019-01-24T06:05:56.297Z,60.27
2019-01-24T06:06:56.254Z,60.58
2019-01-24T06:07:56.224Z,60.37
2019-01-24T06:08:56.211Z,60.58
2019-01-24T06:09:56.212Z,60.48
2019-01-24T06:10:56.218Z,60.40
2019-01-24T06:11:56.184Z,60.37
2019-01-24T06:12:56.168Z,60.48
2019-01-24T06:13:56.162Z,60.27
2019-01-24T06:14:56.151Z,60.69
2019-01-24T06:15:56.169Z,60.48
2019-01-24T06:16:56.128Z,60.06
2019-01-24T06:17:56.128Z,60.37
2019-01-24T06:18:56.113Z,60.55
2019-01-24T06:19:56.105Z,60.13
2019-01-24T06:20:56.111Z,58.98
2019-01-24T06:21:56.098Z,58.87
2019-01-24T06:22:56.078Z,60.03
2019-01-24T06:23:56.054Z,59.82
2019-01-24T06:24:56.057Z,59.42
2019-01-24T06:25:56.036Z,59.95
2019-01-24T06:26:56.084Z,59.74
2019-01-24T06:27:56.049Z,60.61
2019-01-24T06:28:55.997Z,60.30
2019-01-24T06:29:55.992Z,60.16
2019-01-24T06:30:55.975Z,60.50
2019-01-24T06:31:55.968Z,60.48
2019-01-24T06:32:55.978Z,59.84
2019-01-24T06:33:55.945Z,59.01
2019-01-24T06:34:55.933Z,59.11
2019-01-24T06:35:55.925Z,59.22
2019-01-24T06:36:55.920Z,58.72
2019-01-24T06:37:55.962Z,59.24
2019-01-24T06:38:55.893Z,59.77
2019-01-24T06:39:55.875Z,58.80
2019-01-24T06:40:55.869Z,59.64
2019-01-24T06:41:55.857Z,59.42
2019-01-24T06:42:55.850Z,59.77
2019-01-24T06:43:55.865Z,59.64
2019-01-24T06:44:55.853Z,59.01
2019-01-24T06:45:55.808Z,58.80
2019-01-24T06:46:55.817Z,58.93
2019-01-24T06:47:55.821Z,60.30
2019-01-24T06:48:55.811Z,60.40
2019-01-24T06:49:55.769Z,60.08
2019-01-24T06:50:55.762Z,60.40
2019-01-24T06:51:55.745Z,60.30
2019-01-24T06:52:55.762Z,60.40
2019-01-24T06:53:55.721Z,60.61
2019-01-24T06:54:55.710Z,60.50
2019-01-24T06:55:55.699Z,60.64
2019-01-24T06:56:55.739Z,60.50
2019-01-24T06:57:55.714Z,60.19
2019-01-24T06:58:55.696Z,60.50
2019-01-24T06:59:55.665Z,59.98
2019-01-24T07:00:55.665Z,60.08
2019-01-24T07:01:55.642Z,58.83
2019-01-24T07:02:55.753Z,59.03
2019-01-24T07:03:55.656Z,59.98
2019-01-24T07:04:55.612Z,59.98
2019-01-24T07:05:55.658Z,59.56
2019-01-24T07:06:55.578Z,59.77
2019-01-24T07:07:55.578Z,59.66
2019-01-24T07:08:55.559Z,59.88
2019-01-24T07:09:55.580Z,58.80
2019-01-24T07:10:55.538Z,59.56
2019-01-24T07:11:55.531Z,59.74
2019-01-24T07:12:55.521Z,59.74
2019-01-24T07:13:55.540Z,59.11
2019-01-24T07:14:55.594Z,60.37
2019-01-24T07:15:55.494Z,60.40
2019-01-24T07:16:55.471Z,60.61
2019-01-24T07:17:55.473Z,60.16
2019-01-24T07:18:55.449Z,59.77
2019-01-24T07:19:55.446Z,59.84
2019-01-24T07:20:55.489Z,59.95
2019-01-24T07:21:55.421Z,59.84
2019-01-24T07:22:55.406Z,58.90
2019-01-24T07:23:55.407Z,59.64
2019-01-24T07:24:55.405Z,59.84
2019-01-24T07:25:55.433Z,59.95
2019-01-24T07:26:55.363Z,59.01
2019-01-24T07:27:55.352Z,59.22
2019-01-24T07:28:55.343Z,59.32
2019-01-24T07:29:55.338Z,60.06
2019-01-24T07:30:55.322Z,59.72
2019-01-24T07:31:55.341Z,59.82
2019-01-24T07:32:55.305Z,59.30
2019-01-24T07:33:55.286Z,59.38
2019-01-24T07:34:55.280Z,59.30
2019-01-24T07:35:55.265Z,59.72
2019-01-24T07:36:55.286Z,59.92
2019-01-24T07:37:55.248Z,60.35
2019-01-24T07:38:55.231Z,60.35
2019-01-24T07:39:55.228Z,60.35
2019-01-24T07:40:55.215Z,60.24
2019-01-24T07:41:55.238Z,60.13
2019-01-24T07:42:55.204Z,60.55
2019-01-24T07:43:55.184Z,60.35
2019-01-24T07:44:55.181Z,60.27
2019-01-24T07:45:55.167Z,60.48
2019-01-24T07:46:55.173Z,60.48
2019-01-24T07:47:55.139Z,60.37
2019-01-24T07:48:55.136Z,59.22
2019-01-24T07:49:55.153Z,59.95
2019-01-24T07:50:55.108Z,60.19
2019-01-24T07:51:55.134Z,60.61
2019-01-24T07:52:55.096Z,61.13
2019-01-24T07:53:55.077Z,60.93
2019-01-24T07:54:55.071Z,60.93
2019-01-24T07:55:55.046Z,61.13
2019-01-24T07:56:55.087Z,60.69
2019-01-24T07:57:55.072Z,60.16
2019-01-24T07:58:55.016Z,60.27
2019-01-24T07:59:55.003Z,60.37
2019-01-24T08:00:54.998Z,60.48
2019-01-24T08:01:54.985Z,59.66
2019-01-24T08:02:55.030Z,59.77
2019-01-24T08:03:54.962Z,60.30
2019-01-24T08:04:54.949Z,60.61
2019-01-24T08:05:54.949Z,60.85
2019-01-24T08:06:54.929Z,60.40
2019-01-24T08:07:54.932Z,60.71
2019-01-24T08:08:54.956Z,60.82
2019-01-24T08:09:54.914Z,60.50
2019-01-24T08:10:54.888Z,60.30
2019-01-24T08:11:54.901Z,59.35
2019-01-24T08:12:54.891Z,59.32
2019-01-24T08:13:54.878Z,59.03
2019-01-24T08:14:54.915Z,59.14
2019-01-24T08:15:54.836Z,59.01
2019-01-24T08:16:54.827Z,59.03
2019-01-24T08:17:54.820Z,59.53
2019-01-24T08:18:54.876Z,59.56
2019-01-24T08:19:54.791Z,60.19
2019-01-24T08:20:54.784Z,59.35
2019-01-24T08:21:54.765Z,59.35
2019-01-24T08:22:54.756Z,59.77
2019-01-24T08:23:54.757Z,59.56
2019-01-24T08:24:54.851Z,59.88
2019-01-24T08:25:54.731Z,59.14
2019-01-24T08:26:54.713Z,59.45
2019-01-24T08:27:54.703Z,60.40
2019-01-24T08:28:54.693Z,60.61
2019-01-24T08:29:54.717Z,60.61
2019-01-24T08:30:54.706Z,60.50
2019-01-24T08:31:54.660Z,60.19
2019-01-24T08:32:54.659Z,59.88
2019-01-24T08:33:54.644Z,59.77
2019-01-24T08:34:54.630Z,58.80
2019-01-24T08:35:54.645Z,59.01
2019-01-24T08:36:54.599Z,59.22
2019-01-24T08:37:54.598Z,58.69
2019-01-24T08:38:54.588Z,59.53
2019-01-24T08:39:54.570Z,58.90
2019-01-24T08:40:54.616Z,59.74
2019-01-24T08:41:54.565Z,59.74
2019-01-24T08:42:54.540Z,59.42
2019-01-24T08:43:54.524Z,58.69
2019-01-24T08:44:54.521Z,59.84
2019-01-24T08:45:54.504Z,59.74
2019-01-24T08:46:54.568Z,59.95
2019-01-24T08:47:54.480Z,60.06
2019-01-24T08:48:54.485Z,60.27
2019-01-24T08:49:54.463Z,60.48
2019-01-24T08:50:54.448Z,60.06
2019-01-24T08:51:54.498Z,60.89
2019-01-24T08:52:54.526Z,60.58
2019-01-24T08:53:54.427Z,59.88
2019-01-24T08:54:54.414Z,60.48
2019-01-24T08:55:54.397Z,60.06
2019-01-24T08:56:54.385Z,60.27
2019-01-24T08:57:54.446Z,60.27
2019-01-24T08:58:54.367Z,60.13
2019-01-24T08:59:54.358Z,60.45
2019-01-24T09:00:54.358Z,59.82
2019-01-24T09:01:54.335Z,59.82
2019-01-24T09:02:54.338Z,60.24
2019-01-24T09:03:54.338Z,60.03
2019-01-24T09:04:54.317Z,59.72
2019-01-24T09:05:54.294Z,59.72
2019-01-24T09:06:54.301Z,59.61
2019-01-24T09:07:54.307Z,59.19
2019-01-24T09:08:54.261Z,58.98
2019-01-24T09:09:54.254Z,59.79
2019-01-24T09:10:54.234Z,59.45
2019-01-24T09:11:54.246Z,58.95
2019-01-24T09:12:54.217Z,59.58
2019-01-24T09:13:54.244Z,59.16
2019-01-24T09:14:54.204Z,59.24
2019-01-24T09:15:54.193Z,59.56
2019-01-24T09:16:54.172Z,59.03
2019-01-24T09:17:54.170Z,58.92
2019-01-24T09:18:54.203Z,58.64
2019-01-24T09:19:54.140Z,59.48
2019-01-24T09:20:54.163Z,58.95
2019-01-24T09:21:54.147Z,59.06
2019-01-24T09:22:55.370Z,58.95
2019-01-24T09:23:54.103Z,58.77
2019-01-24T09:24:54.121Z,59.58
2019-01-24T09:25:54.116Z,59.06
2019-01-24T09:26:54.069Z,59.82
2019-01-24T09:27:54.058Z,59.08
2019-01-24T09:28:54.042Z,59.30
2019-01-24T09:29:54.060Z,59.08
2019-01-24T09:30:54.095Z,58.77
2019-01-24T09:31:54.018Z,58.87
2019-01-24T09:32:54.011Z,59.06
2019-01-24T09:33:53.995Z,59.58
2019-01-24T09:34:53.978Z,58.85
2019-01-24T09:35:53.977Z,58.92
2019-01-24T09:36:54.026Z,59.48
2019-01-24T09:37:53.945Z,58.85
2019-01-24T09:38:53.944Z,58.85
2019-01-24T09:39:53.929Z,58.75
2019-01-24T09:40:53.930Z,57.28
2019-01-24T09:41:53.908Z,57.90
2019-01-24T09:42:53.939Z,57.28
2019-01-24T09:43:53.888Z,57.88
2019-01-24T09:44:53.886Z,57.59
2019-01-24T09:45:53.876Z,57.25
2019-01-24T09:46:53.847Z,57.38
2019-01-24T09:47:53.913Z,57.80
2019-01-24T09:48:53.824Z,57.88
2019-01-24T09:49:53.815Z,57.28
2019-01-24T09:50:53.811Z,58.01
2019-01-24T09:51:53.793Z,57.93
2019-01-24T09:52:53.861Z,58.75
2019-01-24T09:53:53.780Z,58.77
2019-01-24T09:54:53.765Z,58.77
2019-01-24T09:55:53.757Z,59.92
2019-01-24T09:56:53.747Z,59.82
2019-01-24T09:57:53.734Z,59.53
2019-01-24T09:58:53.747Z,59.61
2019-01-24T09:59:53.710Z,57.40
2019-01-24T10:00:53.702Z,57.82
2019-01-24T10:01:53.693Z,56.99
2019-01-24T10:02:53.687Z,57.93
2019-01-24T10:03:53.708Z,58.14
2019-01-24T10:04:53.658Z,58.22
2019-01-24T10:05:53.652Z,58.33
2019-01-24T10:06:53.639Z,58.33
2019-01-24T10:07:53.631Z,58.33
2019-01-24T10:08:53.623Z,58.11
2019-01-24T10:09:53.647Z,58.11
2019-01-24T10:10:53.588Z,58.45
2019-01-24T10:11:53.581Z,58.67
2019-01-24T10:12:53.579Z,58.80
2019-01-24T10:13:53.570Z,59.32
2019-01-24T10:14:53.583Z,59.64
2019-01-24T10:15:53.539Z,59.22
2019-01-24T10:16:53.538Z,58.80
2019-01-24T10:17:53.522Z,59.72
2019-01-24T10:18:53.519Z,58.67
2019-01-24T10:19:53.535Z,58.04
2019-01-24T10:20:53.484Z,58.56
2019-01-24T10:21:53.554Z,59.50
2019-01-24T10:22:53.469Z,58.98
2019-01-24T10:23:53.451Z,58.87
2019-01-24T10:24:53.482Z,59.69
2019-01-24T10:25:53.459Z,59.38
2019-01-24T10:26:53.422Z,60.00
2019-01-24T10:27:53.409Z,60.42
2019-01-24T10:28:53.400Z,59.27
2019-01-24T10:29:53.433Z,58.95
2019-01-24T10:30:53.372Z,58.64
2019-01-24T10:31:53.383Z,58.33
2019-01-24T10:32:53.350Z,57.38
2019-01-24T10:33:53.343Z,57.67
2019-01-24T10:34:53.330Z,57.67
2019-01-24T10:35:53.367Z,58.09
2019-01-24T10:36:53.318Z,57.07
2019-01-24T10:37:53.310Z,59.06
2019-01-24T10:38:53.292Z,58.43
2019-01-24T10:39:53.288Z,58.85
2019-01-24T10:40:53.329Z,58.87
2019-01-24T10:41:53.255Z,59.53
2019-01-24T10:42:53.246Z,59.01
2019-01-24T10:43:53.245Z,59.74
2019-01-24T10:44:53.222Z,60.27
2019-01-24T10:45:53.211Z,60.06
2019-01-24T10:46:53.272Z,59.95
2019-01-24T10:47:53.201Z,59.95
2019-01-24T10:48:53.214Z,58.98
2019-01-24T10:49:53.165Z,59.22
2019-01-24T10:50:53.158Z,59.61
2019-01-24T10:51:53.180Z,59.40
2019-01-24T10:52:53.173Z,58.85
2019-01-24T10:53:53.122Z,58.87
2019-01-24T10:54:53.128Z,59.30
2019-01-24T10:55:53.120Z,57.40
2019-01-24T10:56:53.168Z,57.72
2019-01-24T10:57:53.083Z,57.93
2019-01-24T10:58:53.070Z,57.40
2019-01-24T10:59:53.077Z,58.04
2019-01-24T11:00:53.090Z,56.88
2019-01-24T11:01:53.045Z,57.93
2019-01-24T11:02:53.074Z,58.56
2019-01-24T11:03:53.022Z,58.14
2019-01-24T11:04:53.029Z,58.14
2019-01-24T11:05:52.999Z,57.62
2019-01-24T11:06:52.990Z,57.30
2019-01-24T11:07:53.025Z,58.45
2019-01-24T11:08:52.962Z,57.93
2019-01-24T11:09:52.985Z,57.43
2019-01-24T11:10:52.943Z,57.40
2019-01-24T11:11:52.935Z,58.25
2019-01-24T11:12:52.952Z,58.14
2019-01-24T11:13:52.956Z,56.88
2019-01-24T11:14:52.924Z,57.51
2019-01-24T11:15:52.934Z,57.72
2019-01-24T11:16:52.876Z,58.14
2019-01-24T11:17:52.869Z,58.98
2019-01-24T11:18:52.874Z,59.50
2019-01-24T11:19:52.847Z,59.64
2019-01-24T11:20:52.831Z,59.40
2019-01-24T11:21:52.864Z,59.50
2019-01-24T11:22:52.816Z,59.19
2019-01-24T11:23:52.804Z,58.98
2019-01-24T11:24:52.859Z,59.40
2019-01-24T11:25:52.784Z,58.77
2019-01-24T11:26:52.799Z,58.98
2019-01-24T11:27:52.776Z,59.61
2019-01-24T11:28:52.780Z,59.50
2019-01-24T11:29:52.744Z,59.08
2019-01-24T11:30:52.781Z,58.43
2019-01-24T11:31:52.751Z,58.98
2019-01-24T11:32:52.710Z,59.19
2019-01-24T11:33:52.705Z,58.90
2019-01-24T11:34:52.689Z,59.42
2019-01-24T11:35:52.750Z,59.95
2019-01-24T11:36:56.979Z,60.27
2019-01-24T11:37:52.662Z,59.95
2019-01-24T11:38:52.648Z,60.30
2019-01-24T11:39:52.638Z,60.71
2019-01-24T11:40:52.627Z,60.50
2019-01-24T11:41:52.657Z,60.30
2019-01-24T11:42:52.608Z,60.50
2019-01-24T11:43:52.597Z,60.40
2019-01-24T11:44:52.591Z,60.50
2019-01-24T11:45:52.568Z,61.03
2019-01-24T11:46:52.562Z,60.61
2019-01-24T11:47:52.594Z,60.61
2019-01-24T11:48:52.549Z,60.48
2019-01-24T11:49:52.561Z,60.69
2019-01-24T11:50:52.515Z,60.37
2019-01-24T11:51:52.586Z,60.27
2019-01-24T11:52:52.499Z,59.42
2019-01-24T11:53:53.238Z,60.35
2019-01-24T11:54:52.509Z,58.87
2019-01-24T11:55:52.494Z,59.72
2019-01-24T11:56:52.467Z,60.03
2019-01-24T11:57:52.518Z,60.27
2019-01-24T11:58:52.436Z,60.37
2019-01-24T11:59:52.431Z,60.48
2019-01-24T12:00:52.409Z,60.89
2019-01-24T12:01:52.410Z,60.16
2019-01-24T12:02:52.391Z,60.37
2019-01-24T12:03:52.426Z,60.06
2019-01-24T12:04:52.373Z,60.37
2019-01-24T12:05:52.370Z,60.82
2019-01-24T12:06:52.458Z,60.93
2019-01-24T12:07:52.422Z,60.89
2019-01-24T12:08:52.385Z,60.40
2019-01-24T12:09:52.325Z,60.50
2019-01-24T12:10:52.303Z,60.82
2019-01-24T12:11:52.307Z,60.93
2019-01-24T12:12:52.357Z,60.95
2019-01-24T12:13:52.288Z,61.69
2019-01-24T12:14:52.274Z,62.03
2019-01-24T12:15:52.263Z,62.53
2019-01-24T12:16:52.243Z,62.11
2019-01-24T12:17:52.239Z,61.69
2019-01-24T12:18:52.271Z,61.69
2019-01-24T12:19:52.207Z,62.53
2019-01-24T12:20:52.203Z,61.69
2019-01-24T12:21:52.183Z,61.79
2019-01-24T12:22:52.179Z,61.16
2019-01-24T12:23:52.175Z,61.27
2019-01-24T12:24:52.191Z,61.37
2019-01-24T12:25:52.143Z,61.58
2019-01-24T12:26:52.135Z,61.27
2019-01-24T12:27:52.119Z,61.58
2019-01-24T12:28:52.110Z,62.01
2019-01-24T12:29:52.132Z,62.21
2019-01-24T12:30:52.089Z,62.45
2019-01-24T12:31:52.077Z,62.55
2019-01-24T12:32:52.063Z,62.24
2019-01-24T12:33:52.063Z,62.24
2019-01-24T12:34:52.099Z,62.32
2019-01-24T12:35:52.048Z,62.11
2019-01-24T12:36:52.035Z,61.69
2019-01-24T12:37:52.009Z,61.77
2019-01-24T12:38:52.013Z,61.47
2019-01-24T12:39:52.018Z,61.13
2019-01-24T12:40:52.004Z,60.82
2019-01-24T12:41:51.982Z,60.50
2019-01-24T12:42:51.960Z,61.03
2019-01-24T12:43:51.950Z,60.19
2019-01-24T12:44:51.931Z,60.40
2019-01-24T12:45:51.946Z,60.50
2019-01-24T12:46:51.913Z,60.61
2019-01-24T12:47:51.913Z,60.71
2019-01-24T12:48:51.898Z,61.58
2019-01-24T12:49:51.938Z,61.47
2019-01-24T12:50:51.934Z,61.58
2019-01-24T12:51:51.858Z,60.95